sensor_id;sensor_type;location;lat;lon;timestamp;pressure;altitude;pressure_sealevel;temperature;humidity
72465;BME280;60471;52.150;4.508;2023-04-25T00:00:35;100889.50;;;8.81;62.84
72465;BME280;60471;52.150;4.508;2023-04-25T00:03:02;100887.53;;;8.86;62.36
72465;BME280;60471;52.150;4.508;2023-04-25T00:05:28;100886.16;;;8.98;61.99
72465;BME280;60471;52.150;4.508;2023-04-25T00:07:55;100881.22;;;9.12;62.03
72465;BME280;60471;52.150;4.508;2023-04-25T00:10:22;100890.81;;;9.13;61.68
72465;BME280;60471;52.150;4.508;2023-04-25T00:12:48;100891.97;;;9.28;61.43
72465;BME280;60471;52.150;4.508;2023-04-25T00:15:15;100887.31;;;9.35;60.96
72465;BME280;60471;52.150;4.508;2023-04-25T00:17:41;100895.75;;;9.21;61.72
72465;BME280;60471;52.150;4.508;2023-04-25T00:20:08;100893.25;;;9.18;61.64
72465;BME280;60471;52.150;4.508;2023-04-25T00:22:35;100895.97;;;9.16;62.18
72465;BME280;60471;52.150;4.508;2023-04-25T00:25:06;100895.34;;;9.10;62.52
72465;BME280;60471;52.150;4.508;2023-04-25T00:27:33;100895.84;;;8.76;63.70
72465;BME280;60471;52.150;4.508;2023-04-25T00:29:59;100898.66;;;8.71;64.13
72465;BME280;60471;52.150;4.508;2023-04-25T00:32:26;100895.06;;;8.74;63.81
72465;BME280;60471;52.150;4.508;2023-04-25T00:34:52;100897.66;;;8.52;64.22
72465;BME280;60471;52.150;4.508;2023-04-25T00:37:18;100897.09;;;8.43;64.72
72465;BME280;60471;52.150;4.508;2023-04-25T00:39:45;100899.19;;;8.57;64.87
72465;BME280;60471;52.150;4.508;2023-04-25T00:42:11;100896.09;;;8.69;63.87
72465;BME280;60471;52.150;4.508;2023-04-25T00:44:38;100896.63;;;8.78;63.17
72465;BME280;60471;52.150;4.508;2023-04-25T00:47:06;100902.75;;;8.78;62.41
72465;BME280;60471;52.150;4.508;2023-04-25T00:49:33;100896.81;;;8.73;61.13
72465;BME280;60471;52.150;4.508;2023-04-25T00:51:59;100897.75;;;8.72;60.25
72465;BME280;60471;52.150;4.508;2023-04-25T00:54:26;100901.53;;;8.65;60.54
72465;BME280;60471;52.150;4.508;2023-04-25T00:56:52;100908.19;;;8.74;59.47
72465;BME280;60471;52.150;4.508;2023-04-25T00:59:19;100909.47;;;8.63;58.83
72465;BME280;60471;52.150;4.508;2023-04-25T01:01:46;100911.03;;;8.69;59.00
72465;BME280;60471;52.150;4.508;2023-04-25T01:04:13;100914.38;;;8.73;58.89
72465;BME280;60471;52.150;4.508;2023-04-25T01:06:40;100913.47;;;8.74;58.86
72465;BME280;60471;52.150;4.508;2023-04-25T01:09:06;100915.44;;;8.68;58.75
72465;BME280;60471;52.150;4.508;2023-04-25T01:11:33;100914.44;;;8.71;58.40
72465;BME280;60471;52.150;4.508;2023-04-25T01:13:59;100919.78;;;8.69;59.08
72465;BME280;60471;52.150;4.508;2023-04-25T01:16:27;100914.75;;;8.85;58.50
72465;BME280;60471;52.150;4.508;2023-04-25T01:18:54;100914.53;;;8.91;57.99
72465;BME280;60471;52.150;4.508;2023-04-25T01:21:20;100917.09;;;8.93;57.85
72465;BME280;60471;52.150;4.508;2023-04-25T01:23:47;100912.38;;;8.79;58.91
72465;BME280;60471;52.150;4.508;2023-04-25T01:26:16;100925.56;;;8.78;58.71
72465;BME280;60471;52.150;4.508;2023-04-25T01:28:43;100919.38;;;8.79;58.64
72465;BME280;60471;52.150;4.508;2023-04-25T01:31:11;100927.88;;;8.63;58.69
72465;BME280;60471;52.150;4.508;2023-04-25T01:33:38;100933.69;;;8.50;59.53
72465;BME280;60471;52.150;4.508;2023-04-25T01:36:05;100937.03;;;8.53;59.51
72465;BME280;60471;52.150;4.508;2023-04-25T01:38:32;100939.25;;;8.64;59.25
72465;BME280;60471;52.150;4.508;2023-04-25T01:40:59;100928.09;;;8.81;58.81
72465;BME280;60471;52.150;4.508;2023-04-25T01:43:25;100937.34;;;8.91;58.45
72465;BME280;60471;52.150;4.508;2023-04-25T01:45:52;100933.53;;;8.98;58.11
72465;BME280;60471;52.150;4.508;2023-04-25T01:48:18;100933.59;;;9.18;57.63
72465;BME280;60471;52.150;4.508;2023-04-25T01:50:45;100935.16;;;9.02;57.90
72465;BME280;60471;52.150;4.508;2023-04-25T01:53:12;100929.81;;;9.04;58.71
72465;BME280;60471;52.150;4.508;2023-04-25T01:55:39;100937.59;;;9.07;58.53
72465;BME280;60471;52.150;4.508;2023-04-25T01:58:05;100940.09;;;9.10;58.72
72465;BME280;60471;52.150;4.508;2023-04-25T02:00:38;100938.94;;;9.17;58.86
72465;BME280;60471;52.150;4.508;2023-04-25T02:03:07;100938.94;;;9.17;58.74
72465;BME280;60471;52.150;4.508;2023-04-25T02:05:38;100944.31;;;9.36;58.71
72465;BME280;60471;52.150;4.508;2023-04-25T02:08:06;100942.13;;;9.25;58.98
72465;BME280;60471;52.150;4.508;2023-04-25T02:10:34;100940.22;;;9.07;59.50
72465;BME280;60471;52.150;4.508;2023-04-25T02:13:01;100937.38;;;9.33;58.78
72465;BME280;60471;52.150;4.508;2023-04-25T02:15:27;100943.41;;;9.37;58.68
72465;BME280;60471;52.150;4.508;2023-04-25T02:17:53;100953.06;;;9.36;58.39
72465;BME280;60471;52.150;4.508;2023-04-25T02:20:21;100943.97;;;9.43;58.05
72465;BME280;60471;52.150;4.508;2023-04-25T02:22:48;100953.97;;;9.57;57.42
72465;BME280;60471;52.150;4.508;2023-04-25T02:25:15;100949.59;;;9.36;57.69
72465;BME280;60471;52.150;4.508;2023-04-25T02:27:42;100946.56;;;9.45;56.41
72465;BME280;60471;52.150;4.508;2023-04-25T02:30:09;100948.28;;;9.46;56.21
72465;BME280;60471;52.150;4.508;2023-04-25T02:32:35;100949.38;;;9.40;56.17
72465;BME280;60471;52.150;4.508;2023-04-25T02:35:02;100950.91;;;9.46;55.94
72465;BME280;60471;52.150;4.508;2023-04-25T02:37:33;100961.31;;;9.49;55.72
72465;BME280;60471;52.150;4.508;2023-04-25T02:40:01;100951.63;;;9.49;55.51
72465;BME280;60471;52.150;4.508;2023-04-25T02:42:29;100958.13;;;9.41;55.93
72465;BME280;60471;52.150;4.508;2023-04-25T02:44:55;100949.75;;;9.31;56.26
72465;BME280;60471;52.150;4.508;2023-04-25T02:47:21;100955.28;;;9.25;56.83
72465;BME280;60471;52.150;4.508;2023-04-25T02:49:48;100944.06;;;9.20;57.44
72465;BME280;60471;52.150;4.508;2023-04-25T02:52:14;100947.88;;;9.35;57.67
72465;BME280;60471;52.150;4.508;2023-04-25T02:54:40;100953.50;;;9.04;57.67
72465;BME280;60471;52.150;4.508;2023-04-25T02:57:07;100950.59;;;8.88;59.35
72465;BME280;60471;52.150;4.508;2023-04-25T02:59:33;100951.38;;;8.91;62.26
72465;BME280;60471;52.150;4.508;2023-04-25T03:02:00;100946.13;;;8.90;62.77
72465;BME280;60471;52.150;4.508;2023-04-25T03:04:27;100941.34;;;9.01;62.77
72465;BME280;60471;52.150;4.508;2023-04-25T03:06:53;100949.69;;;8.89;63.27
72465;BME280;60471;52.150;4.508;2023-04-25T03:09:19;100948.31;;;8.79;64.25
72465;BME280;60471;52.150;4.508;2023-04-25T03:11:46;100951.34;;;8.69;65.05
72465;BME280;60471;52.150;4.508;2023-04-25T03:14:13;100946.72;;;8.53;65.63
72465;BME280;60471;52.150;4.508;2023-04-25T03:16:39;100940.38;;;8.33;66.80
72465;BME280;60471;52.150;4.508;2023-04-25T03:19:06;100936.94;;;8.31;66.98
72465;BME280;60471;52.150;4.508;2023-04-25T03:21:34;100945.88;;;8.27;66.71
72465;BME280;60471;52.150;4.508;2023-04-25T03:24:03;100953.06;;;8.22;66.71
72465;BME280;60471;52.150;4.508;2023-04-25T03:26:30;100949.91;;;8.12;67.38
72465;BME280;60471;52.150;4.508;2023-04-25T03:28:57;100963.81;;;8.16;67.39
72465;BME280;60471;52.150;4.508;2023-04-25T03:31:24;100959.69;;;8.09;67.84
72465;BME280;60471;52.150;4.508;2023-04-25T03:33:50;100971.56;;;8.19;67.65
72465;BME280;60471;52.150;4.508;2023-04-25T03:36:17;100961.81;;;8.23;67.62
72465;BME280;60471;52.150;4.508;2023-04-25T03:38:43;100970.41;;;8.28;67.33
72465;BME280;60471;52.150;4.508;2023-04-25T03:41:09;100965.97;;;8.53;66.86
72465;BME280;60471;52.150;4.508;2023-04-25T03:43:35;100968.38;;;8.59;66.58
72465;BME280;60471;52.150;4.508;2023-04-25T03:46:01;100966.28;;;8.69;66.16
72465;BME280;60471;52.150;4.508;2023-04-25T03:48:30;100972.25;;;8.73;65.92
72465;BME280;60471;52.150;4.508;2023-04-25T03:50:57;100970.63;;;8.70;65.49
72465;BME280;60471;52.150;4.508;2023-04-25T03:53:23;100967.56;;;8.81;65.14
72465;BME280;60471;52.150;4.508;2023-04-25T03:55:49;100971.84;;;8.83;65.10
72465;BME280;60471;52.150;4.508;2023-04-25T03:58:16;100977.78;;;8.88;65.08
72465;BME280;60471;52.150;4.508;2023-04-25T04:00:42;100985.88;;;8.84;64.96
72465;BME280;60471;52.150;4.508;2023-04-25T04:03:08;100984.75;;;8.89;64.22
72465;BME280;60471;52.150;4.508;2023-04-25T04:05:34;100990.94;;;8.88;64.37
72465;BME280;60471;52.150;4.508;2023-04-25T04:08:01;100988.84;;;8.75;64.06
72465;BME280;60471;52.150;4.508;2023-04-25T04:10:27;100988.56;;;8.59;64.90
72465;BME280;60471;52.150;4.508;2023-04-25T04:12:53;100992.44;;;8.49;65.30
72465;BME280;60471;52.150;4.508;2023-04-25T04:15:19;100997.81;;;8.46;65.45
72465;BME280;60471;52.150;4.508;2023-04-25T04:17:47;101005.19;;;8.36;65.57
72465;BME280;60471;52.150;4.508;2023-04-25T04:20:14;101008.72;;;8.33;65.49
72465;BME280;60471;52.150;4.508;2023-04-25T04:22:40;101007.81;;;8.36;64.71
72465;BME280;60471;52.150;4.508;2023-04-25T04:25:07;101011.78;;;8.48;64.21
72465;BME280;60471;52.150;4.508;2023-04-25T04:27:33;101009.16;;;8.48;63.87
72465;BME280;60471;52.150;4.508;2023-04-25T04:30:00;101015.03;;;8.29;64.81
72465;BME280;60471;52.150;4.508;2023-04-25T04:32:27;101014.69;;;8.40;64.31
72465;BME280;60471;52.150;4.508;2023-04-25T04:34:53;101009.88;;;8.26;64.68
72465;BME280;60471;52.150;4.508;2023-04-25T04:37:20;101013.97;;;8.35;64.84
72465;BME280;60471;52.150;4.508;2023-04-25T04:39:47;101013.09;;;8.34;64.91
72465;BME280;60471;52.150;4.508;2023-04-25T04:42:13;101015.72;;;8.36;64.65
72465;BME280;60471;52.150;4.508;2023-04-25T04:44:39;101015.94;;;8.28;64.72
72465;BME280;60471;52.150;4.508;2023-04-25T04:47:06;101020.78;;;8.16;64.92
72465;BME280;60471;52.150;4.508;2023-04-25T04:49:32;101021.09;;;8.31;64.52
72465;BME280;60471;52.150;4.508;2023-04-25T04:51:58;101018.84;;;8.21;64.60
72465;BME280;60471;52.150;4.508;2023-04-25T04:54:25;101035.22;;;8.04;64.98
72465;BME280;60471;52.150;4.508;2023-04-25T04:56:52;101031.72;;;8.03;65.79
72465;BME280;60471;52.150;4.508;2023-04-25T04:59:19;101039.53;;;8.05;65.61
72465;BME280;60471;52.150;4.508;2023-04-25T05:01:45;101037.66;;;8.08;65.89
72465;BME280;60471;52.150;4.508;2023-04-25T05:04:12;101051.22;;;8.21;64.00
72465;BME280;60471;52.150;4.508;2023-04-25T05:06:38;101044.19;;;8.48;63.61
72465;BME280;60471;52.150;4.508;2023-04-25T05:09:05;101056.50;;;8.71;62.21
72465;BME280;60471;52.150;4.508;2023-04-25T05:11:31;101043.88;;;8.81;61.63
72465;BME280;60471;52.150;4.508;2023-04-25T05:13:57;101063.34;;;8.75;60.52
72465;BME280;60471;52.150;4.508;2023-04-25T05:16:23;101059.34;;;8.88;59.47
72465;BME280;60471;52.150;4.508;2023-04-25T05:18:49;101066.00;;;8.75;59.56
72465;BME280;60471;52.150;4.508;2023-04-25T05:21:16;101065.41;;;8.67;57.85
72465;BME280;60471;52.150;4.508;2023-04-25T05:23:42;101076.09;;;8.62;57.79
72465;BME280;60471;52.150;4.508;2023-04-25T05:26:08;101082.09;;;8.66;57.69
72465;BME280;60471;52.150;4.508;2023-04-25T05:28:40;101081.16;;;8.68;57.46
72465;BME280;60471;52.150;4.508;2023-04-25T05:31:08;101082.31;;;8.85;56.92
72465;BME280;60471;52.150;4.508;2023-04-25T05:33:35;101098.22;;;8.82;57.13
72465;BME280;60471;52.150;4.508;2023-04-25T05:36:02;101114.06;;;8.80;56.61
72465;BME280;60471;52.150;4.508;2023-04-25T05:38:28;101132.88;;;8.17;60.39
72465;BME280;60471;52.150;4.508;2023-04-25T05:40:54;101136.72;;;8.06;62.63
72465;BME280;60471;52.150;4.508;2023-04-25T05:43:20;101138.22;;;8.13;63.95
72465;BME280;60471;52.150;4.508;2023-04-25T05:45:47;101136.50;;;8.12;63.95
72465;BME280;60471;52.150;4.508;2023-04-25T05:48:13;101130.94;;;8.22;64.51
72465;BME280;60471;52.150;4.508;2023-04-25T05:50:39;101115.13;;;8.23;64.94
72465;BME280;60471;52.150;4.508;2023-04-25T05:53:05;101119.75;;;8.17;66.45
72465;BME280;60471;52.150;4.508;2023-04-25T05:55:32;101121.50;;;8.16;66.85
72465;BME280;60471;52.150;4.508;2023-04-25T05:57:58;101119.97;;;8.37;66.48
72465;BME280;60471;52.150;4.508;2023-04-25T06:00:24;101130.75;;;8.54;66.00
72465;BME280;60471;52.150;4.508;2023-04-25T06:02:50;101118.94;;;8.66;65.33
72465;BME280;60471;52.150;4.508;2023-04-25T06:05:17;101119.91;;;8.63;65.53
72465;BME280;60471;52.150;4.508;2023-04-25T06:07:43;101119.59;;;8.96;64.73
72465;BME280;60471;52.150;4.508;2023-04-25T06:10:09;101122.38;;;9.16;63.67
72465;BME280;60471;52.150;4.508;2023-04-25T06:12:35;101122.53;;;9.12;63.68
72465;BME280;60471;52.150;4.508;2023-04-25T06:15:02;101130.91;;;9.23;63.88
72465;BME280;60471;52.150;4.508;2023-04-25T06:17:28;101128.88;;;9.06;63.65
72465;BME280;60471;52.150;4.508;2023-04-25T06:19:54;101138.94;;;9.18;64.44
72465;BME280;60471;52.150;4.508;2023-04-25T06:22:20;101138.41;;;9.34;63.76
72465;BME280;60471;52.150;4.508;2023-04-25T06:24:47;101147.50;;;9.25;64.04
72465;BME280;60471;52.150;4.508;2023-04-25T06:27:13;101144.34;;;9.15;64.65
72465;BME280;60471;52.150;4.508;2023-04-25T06:29:39;101151.72;;;9.29;64.50
72465;BME280;60471;52.150;4.508;2023-04-25T06:32:05;101147.44;;;9.26;64.21
72465;BME280;60471;52.150;4.508;2023-04-25T06:34:31;101151.19;;;9.43;64.05
72465;BME280;60471;52.150;4.508;2023-04-25T06:36:58;101151.47;;;9.58;62.36
72465;BME280;60471;52.150;4.508;2023-04-25T06:39:24;101146.22;;;9.58;62.12
72465;BME280;60471;52.150;4.508;2023-04-25T06:41:51;101156.25;;;9.71;61.43
72465;BME280;60471;52.150;4.508;2023-04-25T06:44:17;101157.13;;;9.93;60.26
72465;BME280;60471;52.150;4.508;2023-04-25T06:46:43;101151.72;;;10.18;58.65
72465;BME280;60471;52.150;4.508;2023-04-25T06:49:09;101159.50;;;10.21;57.94
72465;BME280;60471;52.150;4.508;2023-04-25T06:51:35;101161.69;;;10.33;58.36
72465;BME280;60471;52.150;4.508;2023-04-25T06:54:02;101165.47;;;10.26;59.09
72465;BME280;60471;52.150;4.508;2023-04-25T06:56:29;101162.25;;;10.40;58.01
72465;BME280;60471;52.150;4.508;2023-04-25T06:58:56;101169.72;;;10.51;56.96
72465;BME280;60471;52.150;4.508;2023-04-25T07:01:22;101165.13;;;10.76;55.84
72465;BME280;60471;52.150;4.508;2023-04-25T07:03:49;101171.66;;;10.67;56.56
72465;BME280;60471;52.150;4.508;2023-04-25T07:06:15;101171.97;;;11.00;55.52
72465;BME280;60471;52.150;4.508;2023-04-25T07:08:41;101172.59;;;11.06;54.39
72465;BME280;60471;52.150;4.508;2023-04-25T07:11:07;101172.47;;;11.29;53.48
72465;BME280;60471;52.150;4.508;2023-04-25T07:13:33;101178.81;;;11.04;52.01
72465;BME280;60471;52.150;4.508;2023-04-25T07:16:00;101185.88;;;10.84;52.68
72465;BME280;60471;52.150;4.508;2023-04-25T07:18:26;101184.53;;;10.75;51.48
72465;BME280;60471;52.150;4.508;2023-04-25T07:20:52;101186.31;;;10.74;51.08
72465;BME280;60471;52.150;4.508;2023-04-25T07:23:18;101185.59;;;10.29;51.37
72465;BME280;60471;52.150;4.508;2023-04-25T07:25:45;101194.47;;;10.04;53.16
72465;BME280;60471;52.150;4.508;2023-04-25T07:28:11;101189.81;;;10.11;51.47
72465;BME280;60471;52.150;4.508;2023-04-25T07:30:37;101192.34;;;10.36;51.58
72465;BME280;60471;52.150;4.508;2023-04-25T07:33:03;101190.25;;;10.44;52.06
72465;BME280;60471;52.150;4.508;2023-04-25T07:35:30;101197.78;;;10.73;51.45
72465;BME280;60471;52.150;4.508;2023-04-25T07:37:56;101196.91;;;10.93;50.17
72465;BME280;60471;52.150;4.508;2023-04-25T07:40:22;101194.56;;;10.87;49.92
72465;BME280;60471;52.150;4.508;2023-04-25T07:42:48;101193.47;;;10.51;49.93
72465;BME280;60471;52.150;4.508;2023-04-25T07:45:15;101197.06;;;10.70;49.65
72465;BME280;60471;52.150;4.508;2023-04-25T07:47:41;101198.28;;;10.61;50.50
72465;BME280;60471;52.150;4.508;2023-04-25T07:50:08;101201.81;;;10.40;50.79
72465;BME280;60471;52.150;4.508;2023-04-25T07:52:35;101201.19;;;11.16;48.57
72465;BME280;60471;52.150;4.508;2023-04-25T07:55:02;101203.66;;;11.58;47.56
72465;BME280;60471;52.150;4.508;2023-04-25T07:57:28;101206.25;;;11.79;47.99
72465;BME280;60471;52.150;4.508;2023-04-25T07:59:55;101211.25;;;12.04;46.83
72465;BME280;60471;52.150;4.508;2023-04-25T08:02:21;101219.38;;;12.54;46.66
72465;BME280;60471;52.150;4.508;2023-04-25T08:04:47;101216.41;;;12.77;46.98
72465;BME280;60471;52.150;4.508;2023-04-25T08:07:15;101226.59;;;12.14;47.82
72465;BME280;60471;52.150;4.508;2023-04-25T08:09:41;101237.56;;;11.88;47.65
72465;BME280;60471;52.150;4.508;2023-04-25T08:12:07;101237.66;;;12.05;47.86
72465;BME280;60471;52.150;4.508;2023-04-25T08:14:33;101238.59;;;12.58;46.75
72465;BME280;60471;52.150;4.508;2023-04-25T08:17:03;101249.06;;;12.61;45.79
72465;BME280;60471;52.150;4.508;2023-04-25T08:19:30;101258.66;;;12.44;45.47
72465;BME280;60471;52.150;4.508;2023-04-25T08:21:56;101257.63;;;11.73;47.58
72465;BME280;60471;52.150;4.508;2023-04-25T08:24:23;101257.41;;;11.78;47.31
72465;BME280;60471;52.150;4.508;2023-04-25T08:26:49;101265.13;;;11.64;47.37
72465;BME280;60471;52.150;4.508;2023-04-25T08:29:15;101274.75;;;11.65;46.00
72465;BME280;60471;52.150;4.508;2023-04-25T08:31:41;101276.13;;;11.73;45.17
72465;BME280;60471;52.150;4.508;2023-04-25T08:34:08;101273.25;;;11.59;45.25
72465;BME280;60471;52.150;4.508;2023-04-25T08:36:34;101279.19;;;11.64;45.03
72465;BME280;60471;52.150;4.508;2023-04-25T08:39:00;101288.47;;;11.33;45.91
72465;BME280;60471;52.150;4.508;2023-04-25T08:41:26;101292.97;;;11.91;44.31
72465;BME280;60471;52.150;4.508;2023-04-25T08:43:55;101298.69;;;12.19;44.58
72465;BME280;60471;52.150;4.508;2023-04-25T08:46:23;101288.72;;;12.43;43.21
72465;BME280;60471;52.150;4.508;2023-04-25T08:48:51;101305.50;;;12.61;42.93
72465;BME280;60471;52.150;4.508;2023-04-25T08:51:23;101298.47;;;11.86;44.93
72465;BME280;60471;52.150;4.508;2023-04-25T08:53:52;101315.91;;;12.09;45.20
72465;BME280;60471;52.150;4.508;2023-04-25T08:56:18;101321.75;;;12.35;44.62
72465;BME280;60471;52.150;4.508;2023-04-25T08:58:48;101318.91;;;12.02;45.09
72465;BME280;60471;52.150;4.508;2023-04-25T09:01:18;101321.31;;;12.44;43.36
72465;BME280;60471;52.150;4.508;2023-04-25T09:03:44;101320.53;;;12.04;48.23
72465;BME280;60471;52.150;4.508;2023-04-25T09:06:13;101332.28;;;11.99;51.07
72465;BME280;60471;52.150;4.508;2023-04-25T09:08:42;101332.81;;;12.07;51.14
72465;BME280;60471;52.150;4.508;2023-04-25T09:11:08;101341.94;;;12.00;52.19
72465;BME280;60471;52.150;4.508;2023-04-25T09:13:34;101345.44;;;12.00;52.02
72465;BME280;60471;52.150;4.508;2023-04-25T09:16:01;101352.00;;;11.92;52.76
72465;BME280;60471;52.150;4.508;2023-04-25T09:18:29;101356.72;;;12.04;53.19
72465;BME280;60471;52.150;4.508;2023-04-25T09:21:10;101350.72;;;12.00;52.95
72465;BME280;60471;52.150;4.508;2023-04-25T09:23:41;101351.59;;;12.01;52.60
72465;BME280;60471;52.150;4.508;2023-04-25T09:26:09;101352.59;;;12.55;50.45
72465;BME280;60471;52.150;4.508;2023-04-25T09:28:35;101359.25;;;13.34;48.69
72465;BME280;60471;52.150;4.508;2023-04-25T09:31:03;101356.84;;;13.29;48.43
72465;BME280;60471;52.150;4.508;2023-04-25T09:33:33;101359.25;;;13.51;47.67
72465;BME280;60471;52.150;4.508;2023-04-25T09:36:08;101358.44;;;13.67;46.08
72465;BME280;60471;52.150;4.508;2023-04-25T09:38:46;101370.47;;;14.07;45.92
72465;BME280;60471;52.150;4.508;2023-04-25T09:41:12;101360.78;;;13.90;45.09
72465;BME280;60471;52.150;4.508;2023-04-25T09:43:39;101361.09;;;14.00;45.33
72465;BME280;60471;52.150;4.508;2023-04-25T09:46:11;101361.06;;;14.17;44.83
72465;BME280;60471;52.150;4.508;2023-04-25T09:48:38;101355.00;;;14.31;43.24
72465;BME280;60471;52.150;4.508;2023-04-25T09:51:08;101355.13;;;13.96;45.16
72465;BME280;60471;52.150;4.508;2023-04-25T09:53:36;101372.13;;;13.59;46.71
72465;BME280;60471;52.150;4.508;2023-04-25T09:56:05;101367.16;;;14.19;44.68
72465;BME280;60471;52.150;4.508;2023-04-25T09:58:38;101367.66;;;15.20;42.09
72465;BME280;60471;52.150;4.508;2023-04-25T10:01:08;101363.50;;;14.53;43.23
72465;BME280;60471;52.150;4.508;2023-04-25T10:03:37;101370.22;;;14.11;44.62
72465;BME280;60471;52.150;4.508;2023-04-25T10:06:12;101376.81;;;13.54;44.90
72465;BME280;60471;52.150;4.508;2023-04-25T10:08:44;101374.78;;;13.42;43.39
72465;BME280;60471;52.150;4.508;2023-04-25T10:11:10;101381.13;;;13.89;41.24
72465;BME280;60471;52.150;4.508;2023-04-25T10:13:40;101373.84;;;14.26;42.11
72465;BME280;60471;52.150;4.508;2023-04-25T10:16:07;101385.78;;;14.02;40.10
72465;BME280;60471;52.150;4.508;2023-04-25T10:18:34;101375.22;;;15.42;38.70
72465;BME280;60471;52.150;4.508;2023-04-25T10:21:03;101383.94;;;15.14;39.08
72465;BME280;60471;52.150;4.508;2023-04-25T10:23:31;101386.09;;;15.37;38.11
72465;BME280;60471;52.150;4.508;2023-04-25T10:25:58;101390.19;;;17.39;34.93
72465;BME280;60471;52.150;4.508;2023-04-25T10:28:26;101382.72;;;18.46;31.72
72465;BME280;60471;52.150;4.508;2023-04-25T10:30:57;101396.84;;;18.23;32.13
72465;BME280;60471;52.150;4.508;2023-04-25T10:33:33;101387.63;;;19.13;30.76
72465;BME280;60471;52.150;4.508;2023-04-25T10:39:03;101389.44;;;20.16;28.17
72465;BME280;60471;52.150;4.508;2023-04-25T10:41:48;101395.00;;;19.68;29.46
72465;BME280;60471;52.150;4.508;2023-04-25T10:44:29;101398.34;;;18.27;30.06
72465;BME280;60471;52.150;4.508;2023-04-25T10:47:01;101404.91;;;17.72;30.59
72465;BME280;60471;52.150;4.508;2023-04-25T10:54:48;101390.38;;;19.71;28.72
72465;BME280;60471;52.150;4.508;2023-04-25T10:57:41;101406.78;;;18.46;28.64
72465;BME280;60471;52.150;4.508;2023-04-25T11:00:20;101393.72;;;18.67;30.47
72465;BME280;60471;52.150;4.508;2023-04-25T11:02:59;101394.75;;;16.57;34.68
72465;BME280;60471;52.150;4.508;2023-04-25T11:05:32;101404.69;;;16.81;34.23
72465;BME280;60471;52.150;4.508;2023-04-25T11:08:00;101407.22;;;16.56;35.17
72465;BME280;60471;52.150;4.508;2023-04-25T11:10:27;101410.69;;;18.66;32.33
72465;BME280;60471;52.150;4.508;2023-04-25T11:12:56;101401.88;;;18.90;31.81
72465;BME280;60471;52.150;4.508;2023-04-25T11:15:26;101419.19;;;17.31;34.10
72465;BME280;60471;52.150;4.508;2023-04-25T11:17:53;101411.81;;;15.97;34.85
72465;BME280;60471;52.150;4.508;2023-04-25T11:20:21;101403.63;;;18.03;32.39
72465;BME280;60471;52.150;4.508;2023-04-25T11:22:48;101403.09;;;19.91;30.28
72465;BME280;60471;52.150;4.508;2023-04-25T11:25:15;101414.19;;;19.03;29.08
72465;BME280;60471;52.150;4.508;2023-04-25T11:27:52;101397.50;;;18.27;30.30
72465;BME280;60471;52.150;4.508;2023-04-25T11:30:20;101417.47;;;16.76;31.61
72465;BME280;60471;52.150;4.508;2023-04-25T11:32:47;101416.72;;;17.28;31.44
72465;BME280;60471;52.150;4.508;2023-04-25T11:35:14;101409.16;;;19.47;28.68
72465;BME280;60471;52.150;4.508;2023-04-25T11:37:42;101412.13;;;20.35;27.34
72465;BME280;60471;52.150;4.508;2023-04-25T11:40:09;101417.56;;;19.88;27.64
72465;BME280;60471;52.150;4.508;2023-04-25T11:42:45;101430.13;;;19.99;27.64
72465;BME280;60471;52.150;4.508;2023-04-25T11:45:13;101413.97;;;21.00;26.61
72465;BME280;60471;52.150;4.508;2023-04-25T11:47:40;101422.75;;;19.32;28.85
72465;BME280;60471;52.150;4.508;2023-04-25T11:50:07;101430.47;;;17.22;31.13
72465;BME280;60471;52.150;4.508;2023-04-25T11:52:41;101437.25;;;16.87;32.32
72465;BME280;60471;52.150;4.508;2023-04-25T11:55:13;101437.19;;;16.74;32.12
72465;BME280;60471;52.150;4.508;2023-04-25T11:57:40;101438.50;;;16.67;31.08
72465;BME280;60471;52.150;4.508;2023-04-25T12:00:16;101442.53;;;17.01;30.06
72465;BME280;60471;52.150;4.508;2023-04-25T12:02:47;101440.63;;;16.33;32.35
72465;BME280;60471;52.150;4.508;2023-04-25T12:05:17;101441.66;;;15.12;35.90
72465;BME280;60471;52.150;4.508;2023-04-25T12:07:43;101453.75;;;16.22;33.00
72465;BME280;60471;52.150;4.508;2023-04-25T12:10:12;101448.50;;;17.19;32.52
72465;BME280;60471;52.150;4.508;2023-04-25T12:12:44;101443.13;;;19.81;29.11
72465;BME280;60471;52.150;4.508;2023-04-25T12:15:15;101442.81;;;20.19;29.57
72465;BME280;60471;52.150;4.508;2023-04-25T12:17:53;101441.66;;;17.67;34.03
72465;BME280;60471;52.150;4.508;2023-04-25T12:20:24;101450.72;;;17.91;34.53
72465;BME280;60471;52.150;4.508;2023-04-25T12:22:52;101448.81;;;19.65;30.04
72465;BME280;60471;52.150;4.508;2023-04-25T12:25:40;101458.53;;;17.55;34.27
72465;BME280;60471;52.150;4.508;2023-04-25T12:28:18;101453.47;;;18.66;33.53
72465;BME280;60471;52.150;4.508;2023-04-25T12:31:05;101458.91;;;20.87;26.29
72465;BME280;60471;52.150;4.508;2023-04-25T12:36:03;101461.41;;;21.54;26.26
72465;BME280;60471;52.150;4.508;2023-04-25T12:38:37;101451.47;;;22.78;23.72
72465;BME280;60471;52.150;4.508;2023-04-25T12:41:05;101456.13;;;23.16;23.48
72465;BME280;60471;52.150;4.508;2023-04-25T12:43:31;101449.81;;;21.74;25.10
72465;BME280;60471;52.150;4.508;2023-04-25T12:45:58;101471.75;;;21.15;26.08
72465;BME280;60471;52.150;4.508;2023-04-25T12:48:25;101468.53;;;20.89;25.59
72465;BME280;60471;52.150;4.508;2023-04-25T12:50:51;101479.97;;;22.80;24.48
72465;BME280;60471;52.150;4.508;2023-04-25T12:53:19;101483.03;;;21.73;24.77
72465;BME280;60471;52.150;4.508;2023-04-25T12:55:47;101483.38;;;20.37;27.49
72465;BME280;60471;52.150;4.508;2023-04-25T12:58:18;101489.66;;;19.20;30.00
72465;BME280;60471;52.150;4.508;2023-04-25T13:00:46;101482.78;;;17.91;32.43
72465;BME280;60471;52.150;4.508;2023-04-25T13:03:12;101487.16;;;17.92;33.91
72465;BME280;60471;52.150;4.508;2023-04-25T13:05:39;101494.09;;;18.08;34.01
72465;BME280;60471;52.150;4.508;2023-04-25T13:08:05;101490.84;;;16.11;37.13